Аэропорт: Основа. Харьков

ICAO: UKHH

METAR:
2021-07-28 13:30:00
UKHH 281330Z 23004MPS 9999 SCT038CB 28/14 Q1014 R25/0///81 NOSIG
METAR:
2021-07-28 11:08:00
TAF AMD UKHH 281108Z 2812/2912 23005MPS 9999 SCT030CB TX33/2812Z TN18/2903Z TEMPO 2812/2818 2100 -SHRA SCT007 BKN025CB PROB40 TEMPO 2812/2818 20010G16MPS -TSRAGR BECMG 2818/2820 20002MPS BECMG 2906/2908 25005MPS